Winnetka, California
Current Conditions -  °F | °C
As of 1:51 AM on Saturday 25 Oct 2014 (Local Time) from KVNY Reporting Station
Clear Clear  
Wind Chill: 61°   Ceiling: Unl
Heat Index: 61°   Visibility: 10mi
Dew Point: 42°   Wind: 0mph
Humidity: 50%   Direction: NA
Pressure: 30.02"   Gusts: NA
Location:  34.21°N, 118.57°W
Report Text: KVNY 250851Z 00000KT 10SM CLR 16/06 A3002 RMK AO2 SLP158 T01610056 50006
Loading
Personal Weather Stations






























Interactive Weather Map
Tropical Storm Tracking
New forecast layout! Learn more

10-Day Weather Forecast

Advertisements
Track Severe Weather on mobile